sensor_id;sensor_type;location;lat;lon;timestamp;pressure;altitude;pressure_sealevel;temperature;humidity
69836;BME280;57132;51.972;4.450;2023-01-26T00:00:50;102453.03;;;-0.39;100.00
69836;BME280;57132;51.972;4.450;2023-01-26T00:03:16;102453.03;;;-0.39;100.00
69836;BME280;57132;51.972;4.450;2023-01-26T00:05:42;102452.16;;;-0.39;100.00
69836;BME280;57132;51.972;4.450;2023-01-26T00:08:09;102452.16;;;-0.38;100.00
69836;BME280;57132;51.972;4.450;2023-01-26T00:10:39;102457.41;;;-0.36;100.00
69836;BME280;57132;51.972;4.450;2023-01-26T00:13:06;102448.66;;;-0.35;100.00
69836;BME280;57132;51.972;4.450;2023-01-26T00:15:32;102451.28;;;-0.37;100.00
69836;BME280;57132;51.972;4.450;2023-01-26T00:17:58;102448.66;;;-0.35;100.00
69836;BME280;57132;51.972;4.450;2023-01-26T00:20:24;102452.16;;;-0.36;100.00
69836;BME280;57132;51.972;4.450;2023-01-26T00:22:49;102457.41;;;-0.35;100.00
69836;BME280;57132;51.972;4.450;2023-01-26T00:25:14;102461.78;;;-0.34;100.00
69836;BME280;57132;51.972;4.450;2023-01-26T00:27:40;102455.66;;;-0.33;100.00
69836;BME280;57132;51.972;4.450;2023-01-26T00:30:06;102459.16;;;-0.29;100.00
69836;BME280;57132;51.972;4.450;2023-01-26T00:32:34;102456.53;;;-0.28;100.00
69836;BME280;57132;51.972;4.450;2023-01-26T00:34:59;102453.91;;;-0.31;100.00
69836;BME280;57132;51.972;4.450;2023-01-26T00:37:25;102450.41;;;-0.27;100.00
69836;BME280;57132;51.972;4.450;2023-01-26T00:39:51;102439.91;;;-0.25;100.00
69836;BME280;57132;51.972;4.450;2023-01-26T00:42:17;102444.28;;;-0.22;100.00
69836;BME280;57132;51.972;4.450;2023-01-26T00:44:42;102444.28;;;-0.22;100.00
69836;BME280;57132;51.972;4.450;2023-01-26T00:47:10;102439.91;;;-0.20;100.00
69836;BME280;57132;51.972;4.450;2023-01-26T00:49:36;102440.78;;;-0.20;100.00
69836;BME280;57132;51.972;4.450;2023-01-26T00:52:02;102431.19;;;-0.19;100.00
69836;BME280;57132;51.972;4.450;2023-01-26T00:54:27;102432.91;;;-0.18;100.00
69836;BME280;57132;51.972;4.450;2023-01-26T00:56:53;102425.03;;;-0.17;100.00
69836;BME280;57132;51.972;4.450;2023-01-26T00:59:19;102429.41;;;-0.14;100.00
69836;BME280;57132;51.972;4.450;2023-01-26T01:01:45;102416.28;;;-0.11;100.00
69836;BME280;57132;51.972;4.450;2023-01-26T01:04:10;102413.66;;;-0.10;100.00
69836;BME280;57132;51.972;4.450;2023-01-26T01:06:36;102418.03;;;-0.09;100.00
69836;BME280;57132;51.972;4.450;2023-01-26T01:09:01;102412.78;;;-0.10;100.00
69836;BME280;57132;51.972;4.450;2023-01-26T01:11:26;102417.16;;;-0.11;100.00
69836;BME280;57132;51.972;4.450;2023-01-26T01:13:52;102413.66;;;-0.08;100.00
69836;BME280;57132;51.972;4.450;2023-01-26T01:16:17;102401.38;;;-0.05;100.00
69836;BME280;57132;51.972;4.450;2023-01-26T01:18:43;102407.53;;;-0.06;100.00
69836;BME280;57132;51.972;4.450;2023-01-26T01:21:11;102411.03;;;-0.07;100.00
69836;BME280;57132;51.972;4.450;2023-01-26T01:23:37;102406.66;;;-0.06;100.00
69836;BME280;57132;51.972;4.450;2023-01-26T01:26:03;102408.41;;;-0.05;100.00
69836;BME280;57132;51.972;4.450;2023-01-26T01:28:29;102404.00;;;-0.05;100.00
69836;BME280;57132;51.972;4.450;2023-01-26T01:30:55;102398.75;;;-0.05;100.00
69836;BME280;57132;51.972;4.450;2023-01-26T01:33:22;102405.78;;;-0.04;100.00
69836;BME280;57132;51.972;4.450;2023-01-26T01:35:58;102404.91;;;-0.07;100.00
69836;BME280;57132;51.972;4.450;2023-01-26T01:38:24;102405.78;;;-0.05;100.00
69836;BME280;57132;51.972;4.450;2023-01-26T01:40:50;102416.28;;;-0.07;100.00
69836;BME280;57132;51.972;4.450;2023-01-26T01:43:15;102411.91;;;-0.06;100.00
69836;BME280;57132;51.972;4.450;2023-01-26T01:45:46;102419.78;;;-0.06;100.00
69836;BME280;57132;51.972;4.450;2023-01-26T01:50:55;102412.78;;;-0.07;100.00
69836;BME280;57132;51.972;4.450;2023-01-26T01:53:29;102418.91;;;-0.02;100.00
69836;BME280;57132;51.972;4.450;2023-01-26T01:55:59;102413.66;;;-0.05;100.00
69836;BME280;57132;51.972;4.450;2023-01-26T01:58:27;102409.28;;;-0.03;100.00
69836;BME280;57132;51.972;4.450;2023-01-26T02:00:54;102397.91;;;-0.02;100.00
69836;BME280;57132;51.972;4.450;2023-01-26T02:03:19;102404.88;;;-0.01;100.00
69836;BME280;57132;51.972;4.450;2023-01-26T02:05:56;102397.00;;;0.02;100.00
69836;BME280;57132;51.972;4.450;2023-01-26T02:08:29;102401.41;;;0.02;100.00
69836;BME280;57132;51.972;4.450;2023-01-26T02:10:58;102401.41;;;0.05;100.00
69836;BME280;57132;51.972;4.450;2023-01-26T02:13:27;102401.41;;;0.05;100.00
69836;BME280;57132;51.972;4.450;2023-01-26T02:15:53;102400.53;;;0.04;100.00
69836;BME280;57132;51.972;4.450;2023-01-26T02:18:19;102403.13;;;0.07;100.00
69836;BME280;57132;51.972;4.450;2023-01-26T02:20:49;102404.00;;;0.06;100.00
69836;BME280;57132;51.972;4.450;2023-01-26T02:26:11;102401.38;;;0.06;100.00
69836;BME280;57132;51.972;4.450;2023-01-26T02:28:38;102396.13;;;0.06;100.00
69836;BME280;57132;51.972;4.450;2023-01-26T02:31:04;102392.66;;;0.04;100.00
69836;BME280;57132;51.972;4.450;2023-01-26T02:33:31;102402.25;;;0.02;100.00
69836;BME280;57132;51.972;4.450;2023-01-26T02:35:58;102394.38;;;0.02;100.00
69836;BME280;57132;51.972;4.450;2023-01-26T02:38:28;102404.03;;;0.05;100.00
69836;BME280;57132;51.972;4.450;2023-01-26T02:40:55;102400.50;;;0.03;100.00
69836;BME280;57132;51.972;4.450;2023-01-26T02:43:25;102397.88;;;0.03;100.00
69836;BME280;57132;51.972;4.450;2023-01-26T02:45:52;102393.53;;;0.05;100.00
69836;BME280;57132;51.972;4.450;2023-01-26T02:48:18;102399.63;;;0.05;100.00
69836;BME280;57132;51.972;4.450;2023-01-26T02:51:02;102404.00;;;0.08;100.00
69836;BME280;57132;51.972;4.450;2023-01-26T02:53:29;102407.50;;;0.07;100.00
69836;BME280;57132;51.972;4.450;2023-01-26T02:55:54;102415.38;;;0.07;100.00
69836;BME280;57132;51.972;4.450;2023-01-26T02:58:20;102413.63;;;0.07;100.00
69836;BME280;57132;51.972;4.450;2023-01-26T03:00:45;102408.38;;;0.07;100.00
69836;BME280;57132;51.972;4.450;2023-01-26T03:03:13;102418.00;;;0.08;100.00
69836;BME280;57132;51.972;4.450;2023-01-26T03:05:39;102411.00;;;0.07;100.00
69836;BME280;57132;51.972;4.450;2023-01-26T03:08:05;102408.38;;;0.10;100.00
69836;BME280;57132;51.972;4.450;2023-01-26T03:10:32;102407.47;;;0.11;100.00
69836;BME280;57132;51.972;4.450;2023-01-26T03:12:57;102413.63;;;0.16;100.00
69836;BME280;57132;51.972;4.450;2023-01-26T03:15:26;102404.84;;;0.16;100.00
69836;BME280;57132;51.972;4.450;2023-01-26T03:18:13;102412.72;;;0.16;100.00
69836;BME280;57132;51.972;4.450;2023-01-26T03:20:59;102410.09;;;0.16;100.00
69836;BME280;57132;51.972;4.450;2023-01-26T03:23:43;102406.59;;;0.18;100.00
69836;BME280;57132;51.972;4.450;2023-01-26T03:26:27;102406.59;;;0.18;100.00
69836;BME280;57132;51.972;4.450;2023-01-26T03:29:13;102408.34;;;0.22;100.00
69836;BME280;57132;51.972;4.450;2023-01-26T03:31:48;102414.47;;;0.23;100.00
69836;BME280;57132;51.972;4.450;2023-01-26T03:34:14;102404.81;;;0.27;100.00
69836;BME280;57132;51.972;4.450;2023-01-26T03:36:39;102406.56;;;0.28;100.00
69836;BME280;57132;51.972;4.450;2023-01-26T03:39:05;102416.19;;;0.27;100.00
69836;BME280;57132;51.972;4.450;2023-01-26T03:41:32;102414.44;;;0.28;100.00
69836;BME280;57132;51.972;4.450;2023-01-26T03:44:16;102414.47;;;0.26;100.00
69836;BME280;57132;51.972;4.450;2023-01-26T03:47:00;102413.59;;;0.26;100.00
69836;BME280;57132;51.972;4.450;2023-01-26T03:49:44;102411.81;;;0.26;100.00
69836;BME280;57132;51.972;4.450;2023-01-26T03:52:30;102404.81;;;0.27;100.00
69836;BME280;57132;51.972;4.450;2023-01-26T03:55:14;102403.94;;;0.29;100.00
69836;BME280;57132;51.972;4.450;2023-01-26T03:57:58;102406.56;;;0.29;100.00
69836;BME280;57132;51.972;4.450;2023-01-26T04:00:23;102408.28;;;0.32;100.00
69836;BME280;57132;51.972;4.450;2023-01-26T04:02:48;102410.06;;;0.30;100.00
69836;BME280;57132;51.972;4.450;2023-01-26T04:05:32;102404.81;;;0.30;100.00
69836;BME280;57132;51.972;4.450;2023-01-26T04:08:16;102418.81;;;0.30;100.00
69836;BME280;57132;51.972;4.450;2023-01-26T04:10:45;102409.16;;;0.35;100.00
69836;BME280;57132;51.972;4.450;2023-01-26T04:13:11;102407.44;;;0.34;100.00
69836;BME280;57132;51.972;4.450;2023-01-26T04:15:55;102413.56;;;0.35;100.00
69836;BME280;57132;51.972;4.450;2023-01-26T04:18:39;102408.31;;;0.33;100.00
69836;BME280;57132;51.972;4.450;2023-01-26T04:21:24;102411.81;;;0.34;100.00
69836;BME280;57132;51.972;4.450;2023-01-26T04:23:57;102411.78;;;0.35;100.00
69836;BME280;57132;51.972;4.450;2023-01-26T04:26:25;102407.44;;;0.36;100.00
69836;BME280;57132;51.972;4.450;2023-01-26T04:28:52;102408.31;;;0.36;100.00
69836;BME280;57132;51.972;4.450;2023-01-26T04:31:17;102421.44;;;0.38;100.00
69836;BME280;57132;51.972;4.450;2023-01-26T04:33:42;102412.69;;;0.37;100.00
69836;BME280;57132;51.972;4.450;2023-01-26T04:36:09;102407.41;;;0.37;100.00
69836;BME280;57132;51.972;4.450;2023-01-26T04:38:35;102414.41;;;0.38;100.00
69836;BME280;57132;51.972;4.450;2023-01-26T04:41:01;102405.66;;;0.39;100.00
69836;BME280;57132;51.972;4.450;2023-01-26T04:43:26;102403.91;;;0.40;100.00
69836;BME280;57132;51.972;4.450;2023-01-26T04:46:05;102407.41;;;0.42;100.00
69836;BME280;57132;51.972;4.450;2023-01-26T04:48:31;102407.38;;;0.43;100.00
69836;BME280;57132;51.972;4.450;2023-01-26T04:51:03;102404.78;;;0.45;100.00
69836;BME280;57132;51.972;4.450;2023-01-26T04:53:28;102411.75;;;0.46;100.00
69836;BME280;57132;51.972;4.450;2023-01-26T04:55:54;102402.16;;;0.45;100.00
69836;BME280;57132;51.972;4.450;2023-01-26T04:58:20;102411.75;;;0.47;100.00
69836;BME280;57132;51.972;4.450;2023-01-26T05:00:53;102411.75;;;0.51;100.00
69836;BME280;57132;51.972;4.450;2023-01-26T05:03:19;102409.13;;;0.52;100.00
69836;BME280;57132;51.972;4.450;2023-01-26T05:05:48;102410.88;;;0.53;100.00
69836;BME280;57132;51.972;4.450;2023-01-26T05:08:14;102410.00;;;0.53;100.00
69836;BME280;57132;51.972;4.450;2023-01-26T05:10:40;102412.59;;;0.51;100.00
69836;BME280;57132;51.972;4.450;2023-01-26T05:13:05;102410.88;;;0.52;100.00
69836;BME280;57132;51.972;4.450;2023-01-26T05:15:30;102410.88;;;0.52;100.00
69836;BME280;57132;51.972;4.450;2023-01-26T05:17:57;102413.50;;;0.53;100.00
69836;BME280;57132;51.972;4.450;2023-01-26T05:20:24;102417.00;;;0.54;100.00
69836;BME280;57132;51.972;4.450;2023-01-26T05:22:49;102415.22;;;0.54;100.00
69836;BME280;57132;51.972;4.450;2023-01-26T05:25:15;102414.34;;;0.57;100.00
69836;BME280;57132;51.972;4.450;2023-01-26T05:27:40;102416.06;;;0.59;100.00
69836;BME280;57132;51.972;4.450;2023-01-26T05:30:06;102418.72;;;0.59;100.00
69836;BME280;57132;51.972;4.450;2023-01-26T05:32:31;102422.22;;;0.61;100.00
69836;BME280;57132;51.972;4.450;2023-01-26T05:34:57;102423.97;;;0.64;100.00
69836;BME280;57132;51.972;4.450;2023-01-26T05:37:24;102422.19;;;0.66;100.00
69836;BME280;57132;51.972;4.450;2023-01-26T05:39:49;102419.56;;;0.69;100.00
69836;BME280;57132;51.972;4.450;2023-01-26T05:42:15;102415.16;;;0.71;100.00
69836;BME280;57132;51.972;4.450;2023-01-26T05:44:40;102416.91;;;0.73;100.00
69836;BME280;57132;51.972;4.450;2023-01-26T05:47:06;102419.53;;;0.77;100.00
69836;BME280;57132;51.972;4.450;2023-01-26T05:49:31;102418.63;;;0.79;100.00
69836;BME280;57132;51.972;4.450;2023-01-26T05:51:56;102416.84;;;0.86;100.00
69836;BME280;57132;51.972;4.450;2023-01-26T05:54:23;102419.44;;;0.90;100.00
69836;BME280;57132;51.972;4.450;2023-01-26T05:56:49;102430.81;;;0.97;100.00
69836;BME280;57132;51.972;4.450;2023-01-26T05:59:14;102426.38;;;1.02;100.00
69836;BME280;57132;51.972;4.450;2023-01-26T06:01:40;102431.63;;;1.11;100.00
69836;BME280;57132;51.972;4.450;2023-01-26T06:04:06;102428.94;;;1.17;100.00
69836;BME280;57132;51.972;4.450;2023-01-26T06:06:31;102429.75;;;1.22;100.00
69836;BME280;57132;51.972;4.450;2023-01-26T06:08:57;102428.88;;;1.25;100.00
69836;BME280;57132;51.972;4.450;2023-01-26T06:11:23;102429.75;;;1.27;100.00
69836;BME280;57132;51.972;4.450;2023-01-26T06:13:48;102426.22;;;1.27;100.00
69836;BME280;57132;51.972;4.450;2023-01-26T06:16:15;102429.75;;;1.26;100.00
69836;BME280;57132;51.972;4.450;2023-01-26T06:18:40;102435.94;;;1.23;100.00
69836;BME280;57132;51.972;4.450;2023-01-26T06:21:06;102434.19;;;1.20;100.00
69836;BME280;57132;51.972;4.450;2023-01-26T06:23:31;102435.94;;;1.17;100.00
69836;BME280;57132;51.972;4.450;2023-01-26T06:26:00;102433.31;;;1.20;100.00
69836;BME280;57132;51.972;4.450;2023-01-26T06:28:27;102435.03;;;1.22;100.00
69836;BME280;57132;51.972;4.450;2023-01-26T06:31:01;102438.50;;;1.26;100.00
69836;BME280;57132;51.972;4.450;2023-01-26T06:33:26;102448.13;;;1.32;100.00
69836;BME280;57132;51.972;4.450;2023-01-26T06:35:52;102445.47;;;1.36;100.00
69836;BME280;57132;51.972;4.450;2023-01-26T06:38:20;102443.66;;;1.41;100.00
69836;BME280;57132;51.972;4.450;2023-01-26T06:40:46;102448.03;;;1.47;100.00
69836;BME280;57132;51.972;4.450;2023-01-26T06:43:11;102448.84;;;1.54;100.00
69836;BME280;57132;51.972;4.450;2023-01-26T06:45:37;102458.41;;;1.65;100.00
69836;BME280;57132;51.972;4.450;2023-01-26T06:48:02;102462.72;;;1.79;100.00
69836;BME280;57132;51.972;4.450;2023-01-26T06:50:31;102461.69;;;1.92;100.00
69836;BME280;57132;51.972;4.450;2023-01-26T06:53:01;102467.72;;;2.05;100.00
69836;BME280;57132;51.972;4.450;2023-01-26T06:55:35;102470.25;;;2.18;100.00
69836;BME280;57132;51.972;4.450;2023-01-26T06:58:02;102465.69;;;2.34;100.00
69836;BME280;57132;51.972;4.450;2023-01-26T07:00:28;102473.41;;;2.51;100.00
69836;BME280;57132;51.972;4.450;2023-01-26T07:02:53;102480.28;;;2.66;100.00
69836;BME280;57132;51.972;4.450;2023-01-26T07:05:19;102472.19;;;2.80;100.00
69836;BME280;57132;51.972;4.450;2023-01-26T07:07:44;102485.19;;;2.95;100.00
69836;BME280;57132;51.972;4.450;2023-01-26T07:10:10;102484.13;;;3.10;100.00
69836;BME280;57132;51.972;4.450;2023-01-26T07:12:43;102486.56;;;3.24;100.00
69836;BME280;57132;51.972;4.450;2023-01-26T07:15:10;102479.44;;;3.30;100.00
69836;BME280;57132;51.972;4.450;2023-01-26T07:17:36;102482.00;;;3.35;100.00
69836;BME280;57132;51.972;4.450;2023-01-26T07:20:02;102488.13;;;3.38;100.00
69836;BME280;57132;51.972;4.450;2023-01-26T07:22:27;102495.03;;;3.49;100.00
69836;BME280;57132;51.972;4.450;2023-01-26T07:24:53;102495.91;;;3.49;100.00
69836;BME280;57132;51.972;4.450;2023-01-26T07:27:18;102497.63;;;3.50;100.00
69836;BME280;57132;51.972;4.450;2023-01-26T07:29:44;102499.31;;;3.54;100.00
69836;BME280;57132;51.972;4.450;2023-01-26T07:32:10;102499.31;;;3.54;100.00
69836;BME280;57132;51.972;4.450;2023-01-26T07:34:36;102499.28;;;3.57;100.00
69836;BME280;57132;51.972;4.450;2023-01-26T07:37:01;102504.56;;;3.56;100.00
69836;BME280;57132;51.972;4.450;2023-01-26T07:39:26;102508.09;;;3.56;100.00
69836;BME280;57132;51.972;4.450;2023-01-26T07:41:52;102512.56;;;3.51;100.00
69836;BME280;57132;51.972;4.450;2023-01-26T07:44:17;102514.31;;;3.52;100.00
69836;BME280;57132;51.972;4.450;2023-01-26T07:46:43;102512.63;;;3.47;100.00
69836;BME280;57132;51.972;4.450;2023-01-26T07:49:08;102527.69;;;3.41;100.00
69836;BME280;57132;51.972;4.450;2023-01-26T07:51:37;102522.38;;;3.43;100.00
69836;BME280;57132;51.972;4.450;2023-01-26T07:54:04;102523.25;;;3.42;100.00
69836;BME280;57132;51.972;4.450;2023-01-26T07:56:30;102533.00;;;3.38;100.00
69836;BME280;57132;51.972;4.450;2023-01-26T07:58:55;102531.25;;;3.36;100.00
69836;BME280;57132;51.972;4.450;2023-01-26T08:01:21;102536.56;;;3.34;100.00
69836;BME280;57132;51.972;4.450;2023-01-26T08:03:49;102541.03;;;3.29;100.00
69836;BME280;57132;51.972;4.450;2023-01-26T08:06:15;102540.09;;;3.32;100.00
69836;BME280;57132;51.972;4.450;2023-01-26T08:08:41;102540.09;;;3.32;100.00
69836;BME280;57132;51.972;4.450;2023-01-26T08:11:08;102546.25;;;3.32;100.00
69836;BME280;57132;51.972;4.450;2023-01-26T08:13:34;102549.75;;;3.34;100.00
69836;BME280;57132;51.972;4.450;2023-01-26T08:16:01;102548.91;;;3.32;100.00
69836;BME280;57132;51.972;4.450;2023-01-26T08:18:26;102550.69;;;3.30;100.00
69836;BME280;57132;51.972;4.450;2023-01-26T08:20:52;102550.69;;;3.30;100.00
69836;BME280;57132;51.972;4.450;2023-01-26T08:23:18;102549.81;;;3.30;100.00
69836;BME280;57132;51.972;4.450;2023-01-26T08:25:44;102542.78;;;3.30;100.00
69836;BME280;57132;51.972;4.450;2023-01-26T08:28:09;102549.78;;;3.33;100.00
69836;BME280;57132;51.972;4.450;2023-01-26T08:30:35;102544.44;;;3.36;100.00
69836;BME280;57132;51.972;4.450;2023-01-26T08:33:03;102550.50;;;3.44;100.00
69836;BME280;57132;51.972;4.450;2023-01-26T08:35:30;102550.47;;;3.47;100.00
69836;BME280;57132;51.972;4.450;2023-01-26T08:37:55;102553.03;;;3.52;100.00
69836;BME280;57132;51.972;4.450;2023-01-26T08:40:21;102564.38;;;3.58;100.00
69836;BME280;57132;51.972;4.450;2023-01-26T08:42:49;102566.09;;;3.62;100.00
69836;BME280;57132;51.972;4.450;2023-01-26T08:45:14;102559.91;;;3.63;100.00
69836;BME280;57132;51.972;4.450;2023-01-26T08:47:40;102564.25;;;3.69;100.00
69836;BME280;57132;51.972;4.450;2023-01-26T08:50:05;102566.78;;;3.77;100.00
69836;BME280;57132;51.972;4.450;2023-01-26T08:52:31;102560.47;;;3.84;100.00
69836;BME280;57132;51.972;4.450;2023-01-26T08:54:56;102568.34;;;3.90;100.00
69836;BME280;57132;51.972;4.450;2023-01-26T08:57:22;102562.97;;;3.96;100.00
69836;BME280;57132;51.972;4.450;2023-01-26T08:59:47;102555.78;;;4.04;100.00
69836;BME280;57132;51.972;4.450;2023-01-26T09:02:12;102564.53;;;4.06;100.00
69836;BME280;57132;51.972;4.450;2023-01-26T09:04:38;102567.09;;;4.12;100.00
69836;BME280;57132;51.972;4.450;2023-01-26T09:07:03;102564.25;;;4.23;100.00
69836;BME280;57132;51.972;4.450;2023-01-26T09:09:31;102577.34;;;4.32;100.00
69836;BME280;57132;51.972;4.450;2023-01-26T09:11:56;102584.16;;;4.46;100.00
69836;BME280;57132;51.972;4.450;2023-01-26T09:14:22;102579.56;;;4.55;100.00
69836;BME280;57132;51.972;4.450;2023-01-26T09:16:48;102583.13;;;4.54;100.00
69836;BME280;57132;51.972;4.450;2023-01-26T09:19:14;102585.72;;;4.57;100.00
69836;BME280;57132;51.972;4.450;2023-01-26T09:21:39;102594.59;;;4.53;100.00
69836;BME280;57132;51.972;4.450;2023-01-26T09:24:05;102598.06;;;4.57;100.00
69836;BME280;57132;51.972;4.450;2023-01-26T09:26:30;102592.66;;;4.63;100.00
69836;BME280;57132;51.972;4.450;2023-01-26T09:28:56;102605.00;;;4.62;100.00
69836;BME280;57132;51.972;4.450;2023-01-26T09:31:22;102601.38;;;4.69;100.00
69836;BME280;57132;51.972;4.450;2023-01-26T09:33:48;102612.75;;;4.73;100.00
69836;BME280;57132;51.972;4.450;2023-01-26T09:36:15;102600.41;;;4.75;100.00
69836;BME280;57132;51.972;4.450;2023-01-26T09:38:40;102596.69;;;4.84;100.00
69836;BME280;57132;51.972;4.450;2023-01-26T09:41:12;102593.94;;;4.90;100.00
69836;BME280;57132;51.972;4.450;2023-01-26T09:43:54;102591.22;;;4.93;100.00
69836;BME280;57132;51.972;4.450;2023-01-26T09:51:22;102598.31;;;5.34;100.00
69836;BME280;57132;51.972;4.450;2023-01-26T09:56:22;102600.66;;;5.51;100.00
69836;BME280;57132;51.972;4.450;2023-01-26T09:58:57;102603.78;;;5.68;100.00
69836;BME280;57132;51.972;4.450;2023-01-26T10:01:44;102603.31;;;5.90;100.00
69836;BME280;57132;51.972;4.450;2023-01-26T10:07:02;102599.41;;;6.78;100.00
69836;BME280;57132;51.972;4.450;2023-01-26T10:09:31;102598.88;;;7.29;100.00
69836;BME280;57132;51.972;4.450;2023-01-26T10:12:01;102603.78;;;8.27;100.00
69836;BME280;57132;51.972;4.450;2023-01-26T10:14:40;102608.56;;;9.20;100.00
69836;BME280;57132;51.972;4.450;2023-01-26T10:17:26;102603.84;;;9.74;98.33
69836;BME280;57132;51.972;4.450;2023-01-26T10:19:59;102604.53;;;10.02;95.92
69836;BME280;57132;51.972;4.450;2023-01-26T10:23:08;102612.53;;;10.02;92.09
69836;BME280;57132;51.972;4.450;2023-01-26T10:25:38;102610.66;;;10.04;91.47
69836;BME280;57132;51.972;4.450;2023-01-26T10:28:14;102610.41;;;10.54;90.62
69836;BME280;57132;51.972;4.450;2023-01-26T10:30:41;102614.00;;;11.15;84.99
69836;BME280;57132;51.972;4.450;2023-01-26T10:35:34;102623.81;;;11.35;84.99
69836;BME280;57132;51.972;4.450;2023-01-26T10:38:00;102624.03;;;11.68;81.48
69836;BME280;57132;51.972;4.450;2023-01-26T10:40:27;102620.38;;;12.08;78.46
69836;BME280;57132;51.972;4.450;2023-01-26T10:42:57;102621.00;;;12.32;75.98
69836;BME280;57132;51.972;4.450;2023-01-26T10:45:29;102626.53;;;12.64;73.78
69836;BME280;57132;51.972;4.450;2023-01-26T10:48:22;102624.09;;;12.59;68.73
69836;BME280;57132;51.972;4.450;2023-01-26T10:50:49;102634.09;;;12.73;68.53
69836;BME280;57132;51.972;4.450;2023-01-26T10:56:08;102633.00;;;12.60;69.55
69836;BME280;57132;51.972;4.450;2023-01-26T10:58:58;102628.03;;;12.52;68.33
69836;BME280;57132;51.972;4.450;2023-01-26T11:01:27;102632.22;;;12.75;69.10
69836;BME280;57132;51.972;4.450;2023-01-26T11:04:10;102627.63;;;13.45;66.36
69836;BME280;57132;51.972;4.450;2023-01-26T11:06:39;102630.00;;;12.66;65.42
69836;BME280;57132;51.972;4.450;2023-01-26T11:09:30;102617.47;;;11.56;70.08
69836;BME280;57132;51.972;4.450;2023-01-26T11:11:58;102614.69;;;10.99;74.04
69836;BME280;57132;51.972;4.450;2023-01-26T11:14:26;102623.44;;;10.82;74.62
69836;BME280;57132;51.972;4.450;2023-01-26T11:17:18;102605.75;;;10.59;77.48
69836;BME280;57132;51.972;4.450;2023-01-26T11:20:05;102606.34;;;10.66;76.55
69836;BME280;57132;51.972;4.450;2023-01-26T11:22:36;102605.19;;;10.92;74.78
69836;BME280;57132;51.972;4.450;2023-01-26T11:27:35;102605.81;;;10.58;74.78
69836;BME280;57132;51.972;4.450;2023-01-26T11:33:02;102608.47;;;10.58;72.78
69836;BME280;57132;51.972;4.450;2023-01-26T11:38:39;102602.81;;;10.45;74.08
69836;BME280;57132;51.972;4.450;2023-01-26T11:41:36;102606.63;;;10.16;74.98
69836;BME280;57132;51.972;4.450;2023-01-26T12:00:00;102594.13;;;9.02;77.07
69836;BME280;57132;51.972;4.450;2023-01-26T12:02:42;102595.34;;;8.42;78.61
69836;BME280;57132;51.972;4.450;2023-01-26T12:05:29;102597.38;;;8.06;81.62
69836;BME280;57132;51.972;4.450;2023-01-26T12:08:03;102599.47;;;7.96;85.38
69836;BME280;57132;51.972;4.450;2023-01-26T12:10:46;102594.25;;;7.93;87.53
69836;BME280;57132;51.972;4.450;2023-01-26T12:13:20;102596.06;;;7.91;89.19
69836;BME280;57132;51.972;4.450;2023-01-26T12:15:53;102583.16;;;8.07;91.42
69836;BME280;57132;51.972;4.450;2023-01-26T12:18:44;102578.22;;;7.96;91.92
69836;BME280;57132;51.972;4.450;2023-01-26T12:21:12;102579.25;;;7.91;91.33
69836;BME280;57132;51.972;4.450;2023-01-26T12:26:14;102569.78;;;7.82;90.53
69836;BME280;57132;51.972;4.450;2023-01-26T12:33:41;102556.47;;;8.88;88.60
69836;BME280;57132;51.972;4.450;2023-01-26T12:39:02;102558.06;;;8.69;89.59
69836;BME280;57132;51.972;4.450;2023-01-26T12:44:40;102547.47;;;8.14;95.31
69836;BME280;57132;51.972;4.450;2023-01-26T12:47:32;102546.78;;;7.81;97.09
69836;BME280;57132;51.972;4.450;2023-01-26T12:52:44;102525.75;;;8.28;99.91
69836;BME280;57132;51.972;4.450;2023-01-26T12:57:53;102535.66;;;8.49;96.82
69836;BME280;57132;51.972;4.450;2023-01-26T13:00:23;102530.13;;;8.29;97.70
69836;BME280;57132;51.972;4.450;2023-01-26T13:02:58;102537.84;;;8.10;99.54
69836;BME280;57132;51.972;4.450;2023-01-26T13:05:33;102527.88;;;7.90;100.00
69836;BME280;57132;51.972;4.450;2023-01-26T13:10:59;102539.19;;;7.41;100.00
69836;BME280;57132;51.972;4.450;2023-01-26T13:13:30;102531.69;;;7.25;100.00
69836;BME280;57132;51.972;4.450;2023-01-26T13:16:30;102529.41;;;7.11;100.00
69836;BME280;57132;51.972;4.450;2023-01-26T13:18:59;102527.03;;;7.02;100.00
69836;BME280;57132;51.972;4.450;2023-01-26T13:21:42;102536.94;;;6.96;100.00
69836;BME280;57132;51.972;4.450;2023-01-26T13:26:43;102545.63;;;7.02;100.00
69836;BME280;57132;51.972;4.450;2023-01-26T13:34:41;102555.31;;;7.05;100.00
69836;BME280;57132;51.972;4.450;2023-01-26T13:40:05;102551.81;;;7.03;100.00
69836;BME280;57132;51.972;4.450;2023-01-26T13:42:56;102538.59;;;7.00;100.00
69836;BME280;57132;51.972;4.450;2023-01-26T13:48:27;102533.13;;;7.06;100.00
69836;BME280;57132;51.972;4.450;2023-01-26T13:50:59;102535.66;;;7.10;100.00
69836;BME280;57132;51.972;4.450;2023-01-26T13:53:39;102524.09;;;7.13;100.00
69836;BME280;57132;51.972;4.450;2023-01-26T13:56:19;102522.38;;;7.10;100.00
69836;BME280;57132;51.972;4.450;2023-01-26T13:58:45;102526.97;;;7.05;100.00
69836;BME280;57132;51.972;4.450;2023-01-26T14:01:12;102532.44;;;6.99;100.00
69836;BME280;57132;51.972;4.450;2023-01-26T14:03:38;102521.94;;;6.95;100.00
69836;BME280;57132;51.972;4.450;2023-01-26T14:06:07;102533.63;;;6.89;100.00
69836;BME280;57132;51.972;4.450;2023-01-26T14:08:34;102530.25;;;6.82;100.00
69836;BME280;57132;51.972;4.450;2023-01-26T14:11:02;102530.56;;;6.72;100.00
69836;BME280;57132;51.972;4.450;2023-01-26T14:13:32;102529.63;;;6.73;100.00
69836;BME280;57132;51.972;4.450;2023-01-26T14:15:59;102529.69;;;6.71;100.00
69836;BME280;57132;51.972;4.450;2023-01-26T14:18:25;102525.38;;;6.67;100.00
69836;BME280;57132;51.972;4.450;2023-01-26T14:21:03;102526.38;;;6.63;100.00